CST,Max TemperatureF,Mean TemperatureF,Min TemperatureF,Max Dew PointF,MeanDew PointF,Min DewpointF,Max Humidity, Mean Humidity, Min Humidity, Max Sea Level PressureIn, Mean Sea Level PressureIn, Min Sea Level PressureIn, Max VisibilityMiles, Mean VisibilityMiles, Min VisibilityMiles, Max Wind SpeedMPH, Mean Wind SpeedMPH, Max Gust SpeedMPH,PrecipitationIn, CloudCover, Events, WindDirDegrees
2012-11-1,55,40,24,34,26,18,96,64,24,30.02,29.98,29.95,10,10,10,13,4,,0.00,2,,275
2012-11-2,61,46,30,37,34,29,96,61,35,30.12,30.02,29.92,10,10,10,10,3,,0.00,2,,318
2012-11-3,65,46,28,41,34,27,100,69,30,30.18,30.09,29.98,10,9,5,12,3,,0.00,3,Thunderstorm,33
2012-11-4,52,41,30,41,37,29,100,84,50,30.19,30.14,30.06,10,10,8,9,5,,0.00,5,,8
2012-11-5,54,38,22,36,30,22,100,77,42,30.22,30.14,30.07,10,8,2,6,1,,0.00,1,,6
2012-11-6,52,43,34,43,38,32,100,81,57,30.07,30.00,29.94,10,8,3,8,1,,0.01,7,Rain,269
2012-11-7,46,39,32,43,42,32,100,95,81,30.18,29.99,29.90,10,4,1,9,1,,0.04,7,Rain,348
2012-11-8,52,39,26,43,33,27,100,94,47,30.32,30.23,30.14,10,3,0,5,0,,0.00,4,Fog,112
2012-11-9,64,44,24,39,33,25,100,76,30,30.36,30.28,30.22,10,7,2,6,0,,0.00,0,,186
2012-11-10,72,54,36,41,35,32,93,57,26,30.36,30.29,30.23,10,10,8,12,2,,0.00,0,,180
2012-11-11,70,52,34,50,41,31,92,56,36,30.36,30.27,30.15,10,10,10,22,8,33,0.00,0,,164
2012-11-12,63,44,25,61,47,25,100,93,63,30.51,30.25,30.13,10,3,0,22,12,30,0.69,6,Fog-Rain,261
2012-11-13,45,33,21,34,24,19,100,89,48,30.57,30.49,30.46,10,5,0,8,1,,0.00,1,Fog,23
2012-11-14,46,35,24,31,27,22,100,77,50,30.51,30.43,30.35,10,10,10,10,2,,0.00,0,,18
2012-11-15,52,36,19,33,26,18,100,80,43,30.41,30.36,30.32,10,8,2,8,1,,0.00,0,,358
2012-11-16,54,38,22,34,28,21,100,75,37,30.47,30.42,30.38,10,8,2,9,2,,0.00,0,,11
2012-11-17,59,40,22,34,28,21,96,76,32,30.53,30.47,30.43,10,7,3,10,1,,0.00,0,,8
2012-11-18,63,42,22,32,27,21,96,70,28,30.49,30.43,30.38,10,8,3,7,1,,0.00,0,,10
2012-11-19,63,44,25,37,32,23,96,75,31,30.40,30.33,30.23,10,10,10,5,0,,0.00,0,,180
2012-11-20,63,48,34,46,40,34,97,72,41,30.24,30.18,30.10,10,10,10,7,1,,0.00,3,,258
2012-11-21,64,48,31,46,38,31,100,84,45,30.27,30.22,30.14,10,8,2,7,1,,0.00,0,,3
2012-11-22,68,48,28,44,36,28,100,78,33,30.30,30.22,30.16,10,8,2,8,1,,0.00,0,,230
2012-11-23,55,44,32,48,39,25,100,73,40,30.25,30.15,30.08,10,8,1,15,9,,0.00,4,Rain,286
2012-11-24,37,28,18,24,19,15,92,73,47,30.31,30.27,30.20,10,10,10,10,6,,0.00,0,,318
2012-11-25,54,36,18,25,21,17,96,58,26,30.21,30.13,30.04,10,10,10,16,4,,0.00,0,,207
2012-11-26,56,42,27,41,32,23,97,68,37,30.22,30.18,30.15,10,9,2,7,1,,0.00,7,Rain,17
2012-11-27,42,38,34,43,37,30,100,95,81,30.40,30.28,30.15,10,4,1,12,6,,0.09,8,Rain,7
2012-11-28,45,32,20,34,29,19,100,85,46,30.52,30.45,30.37,10,7,2,6,0,,0.00,4,,315
2012-11-29,56,37,18,31,25,16,96,74,34,30.48,30.41,30.34,10,8,3,7,1,,0.00,0,,253
2012-11-30,61,43,25,43,34,23,100,79,44,30.39,30.33,30.24,10,10,5,17,3,,0.00,1,,207